Time;durP1;ratioP1;P1;durP2;ratioP2;P2;SDS_P1;SDS_P2;PMS_P1;PMS_P2;Temp;Humidity;BMP_temperature;BMP_pressure;BME280_temperature;BME280_humidity;BME280_pressure;Samples;Min_cycle;Max_cycle;Signal;HPM_P1;HPM_P2
2021/05/10 00:01:05;;;;;;;;;;;23.70;33.60;;;;;;1540822;75;1146;-56
2021/05/10 00:03:07;;;;;;;;;;;23.80;33.60;;;;;;1529714;75;717;-58
2021/05/10 00:05:09;;;;;;;;;;;23.70;33.60;;;;;;1539964;75;872;-58
2021/05/10 00:07:11;;;;;;;;;;;23.70;33.60;;;;;;1537865;75;730;-58
2021/05/10 00:09:13;;;;;;;;;;;23.80;33.60;;;;;;1549916;75;802;-55
2021/05/10 00:11:15;;;;;;;;;;;23.80;33.60;;;;;;1531595;75;1098;-54
2021/05/10 00:13:18;;;;;;;;;;;23.80;33.50;;;;;;1541058;75;1915;-55
2021/05/10 00:15:20;;;;;;;;;;;23.80;33.60;;;;;;1541193;75;804;-60
2021/05/10 00:17:22;;;;;;;;;;;23.70;33.60;;;;;;1535995;75;711;-59
2021/05/10 00:19:24;;;;;;;;;;;23.80;33.60;;;;;;1534385;75;1126;-59
2021/05/10 00:21:26;;;;;;;;;;;23.70;33.60;;;;;;1542094;75;790;-58
2021/05/10 00:23:28;;;;;;;;;;;23.80;33.60;;;;;;1543574;75;798;-56
2021/05/10 00:25:30;;;;;;;;;;;23.70;33.70;;;;;;1545793;75;801;-60
2021/05/10 00:27:32;;;;;;;;;;;23.70;33.70;;;;;;1547443;75;772;-57
2021/05/10 00:29:34;;;;;;;;;;;23.80;33.60;;;;;;1537218;75;1094;-59
2021/05/10 00:31:35;;;;;;;;;;;23.80;33.70;;;;;;1525751;75;817;-58
2021/05/10 00:33:37;;;;;;;;;;;23.80;33.60;;;;;;1533308;75;1945;-59
2021/05/10 00:35:39;;;;;;;;;;;23.80;33.60;;;;;;1535297;75;724;-58
2021/05/10 00:37:42;;;;;;;;;;;23.80;33.70;;;;;;1533757;75;762;-57
2021/05/10 00:39:43;;;;;;;;;;;23.70;33.60;;;;;;1543193;75;1138;-59
2021/05/10 00:41:45;;;;;;;;;;;23.80;33.60;;;;;;1533675;75;765;-57
2021/05/10 00:43:47;;;;;;;;;;;23.80;33.60;;;;;;1532616;75;712;-56
2021/05/10 00:45:49;;;;;;;;;;;23.80;33.60;;;;;;1540175;75;759;-56
2021/05/10 00:47:51;;;;;;;;;;;23.70;33.50;;;;;;1539920;75;728;-59
2021/05/10 00:49:53;;;;;;;;;;;23.70;33.50;;;;;;1535095;75;1138;-58
2021/05/10 00:51:55;;;;;;;;;;;23.80;33.50;;;;;;1547815;75;708;-59
2021/05/10 00:53:57;;;;;;;;;;;23.80;33.50;;;;;;1541568;75;1935;-59
2021/05/10 00:55:59;;;;;;;;;;;23.70;33.60;;;;;;1551897;75;792;-60
2021/05/10 00:58:03;;;;;;;;;;;23.80;33.60;;;;;;1547434;75;822;-58
2021/05/10 01:00:06;;;;;;;;;;;23.70;33.60;;;;;;1536717;75;1138;-59
2021/05/10 01:02:08;;;;;;;;;;;23.70;33.60;;;;;;1541757;75;775;-59
2021/05/10 01:04:10;;;;;;;;;;;23.70;33.60;;;;;;1552541;75;828;-59
2021/05/10 01:06:12;;;;;;;;;;;23.80;33.60;;;;;;1547239;75;697;-56
2021/05/10 01:08:13;;;;;;;;;;;23.70;33.60;;;;;;1535841;75;790;-58
2021/05/10 01:10:16;;;;;;;;;;;23.80;33.60;;;;;;1545778;75;1178;-57
2021/05/10 01:12:18;;;;;;;;;;;23.70;33.60;;;;;;1545218;75;1956;-59
2021/05/10 01:14:20;;;;;;;;;;;23.70;33.60;;;;;;1543557;75;1048;-59
2021/05/10 01:16:21;;;;;;;;;;;23.70;33.60;;;;;;1531184;75;732;-57
2021/05/10 01:18:23;;;;;;;;;;;23.70;33.50;;;;;;1526539;75;720;-57
2021/05/10 01:20:25;;;;;;;;;;;23.60;33.40;;;;;;1553264;75;1124;-56
2021/05/10 01:22:38;;;;;;;;;;;23.70;33.50;;;;;;1533369;75;762;-58
2021/05/10 01:24:40;;;;;;;;;;;23.60;33.40;;;;;;1541373;75;1852;-56
2021/05/10 01:26:41;;;;;;;;;;;23.70;33.70;;;;;;1537912;75;804;-59
2021/05/10 01:28:43;;;;;;;;;;;23.60;33.40;;;;;;1542705;75;725;-59
2021/05/10 01:30:49;;;;;;;;;;;23.60;33.40;;;;;;1535127;75;1138;-55
2021/05/10 01:32:49;;;;;;;;;;;23.60;33.50;;;;;;1536648;75;1934;-59
2021/05/10 01:34:51;;;;;;;;;;;23.60;33.50;;;;;;1534964;75;829;-59
2021/05/10 01:36:53;;;;;;;;;;;23.60;33.50;;;;;;1544137;75;786;-60
2021/05/10 01:38:55;;;;;;;;;;;23.60;33.50;;;;;;1550446;75;702;-59
2021/05/10 01:40:57;;;;;;;;;;;23.60;33.60;;;;;;1540148;75;1095;-57
2021/05/10 01:42:59;;;;;;;;;;;23.60;33.50;;;;;;1546465;75;741;-55
2021/05/10 01:45:01;;;;;;;;;;;23.60;33.40;;;;;;1538208;75;831;-56
2021/05/10 01:47:03;;;;;;;;;;;23.60;33.50;;;;;;1543033;75;692;-58
2021/05/10 01:49:05;;;;;;;;;;;23.60;33.60;;;;;;1543326;75;773;-57
2021/05/10 01:51:06;;;;;;;;;;;23.60;33.50;;;;;;1545206;75;1116;-60
2021/05/10 01:53:08;;;;;;;;;;;23.60;33.60;;;;;;1544679;75;1917;-59
2021/05/10 01:55:11;;;;;;;;;;;23.60;33.60;;;;;;1548075;75;719;-59
2021/05/10 01:57:12;;;;;;;;;;;23.60;33.40;;;;;;1542423;75;767;-59
2021/05/10 01:59:14;;;;;;;;;;;23.60;33.40;;;;;;1542733;75;730;-59
2021/05/10 02:01:16;;;;;;;;;;;23.50;33.50;;;;;;1543459;73;217314;-59
2021/05/10 02:03:19;;;;;;;;;;;23.60;33.60;;;;;;1579761;74;721;-62
2021/05/10 02:05:21;;;;;;;;;;;23.60;33.60;;;;;;1589939;74;738;-61
2021/05/10 02:07:23;;;;;;;;;;;23.60;33.40;;;;;;1603260;73;696;-61
2021/05/10 02:09:25;;;;;;;;;;;23.60;33.40;;;;;;1590380;74;707;-62
2021/05/10 02:11:27;;;;;;;;;;;23.50;33.50;;;;;;1590958;73;1243;-62
2021/05/10 02:13:29;;;;;;;;;;;23.50;33.50;;;;;;1611256;72;1926;-62
2021/05/10 02:15:31;;;;;;;;;;;23.60;33.50;;;;;;1609265;72;707;-62
2021/05/10 02:17:33;;;;;;;;;;;23.50;33.50;;;;;;1610104;73;765;-62
2021/05/10 02:19:35;;;;;;;;;;;23.50;33.50;;;;;;1614910;72;787;-62
2021/05/10 02:21:37;;;;;;;;;;;23.50;33.50;;;;;;1619223;72;1157;-62
2021/05/10 02:23:39;;;;;;;;;;;23.60;33.50;;;;;;1608978;73;792;-62
2021/05/10 02:25:41;;;;;;;;;;;23.50;33.50;;;;;;1613329;73;731;-62
2021/05/10 02:27:43;;;;;;;;;;;23.60;33.50;;;;;;1608037;72;756;-61
2021/05/10 02:29:45;;;;;;;;;;;23.50;33.50;;;;;;1616755;72;815;-62
2021/05/10 02:31:47;;;;;;;;;;;23.50;33.40;;;;;;1612569;72;1154;-61
2021/05/10 02:33:49;;;;;;;;;;;23.50;33.60;;;;;;1615338;72;1930;-62
2021/05/10 02:35:51;;;;;;;;;;;23.50;33.60;;;;;;1623010;73;786;-62
2021/05/10 02:37:53;;;;;;;;;;;23.50;33.60;;;;;;1612117;72;784;-61
2021/05/10 02:39:55;;;;;;;;;;;23.50;33.60;;;;;;1607924;73;768;-61
2021/05/10 02:41:57;;;;;;;;;;;23.50;33.70;;;;;;1613379;72;1142;-61
2021/05/10 02:43:59;;;;;;;;;;;23.50;33.80;;;;;;1617505;72;661;-62
2021/05/10 02:46:01;;;;;;;;;;;23.50;33.70;;;;;;1614677;72;875;-64
2021/05/10 02:48:03;;;;;;;;;;;23.50;33.60;;;;;;1613609;72;819;-64
2021/05/10 02:50:06;;;;;;;;;;;23.50;33.90;;;;;;1607293;72;676;-64
2021/05/10 02:52:08;;;;;;;;;;;23.40;33.90;;;;;;1614002;72;1146;-63
2021/05/10 02:54:10;;;;;;;;;;;23.50;33.90;;;;;;1611196;72;1939;-64
2021/05/10 02:56:12;;;;;;;;;;;23.40;33.60;;;;;;1611432;72;874;-63
2021/05/10 02:58:14;;;;;;;;;;;23.40;33.60;;;;;;1610335;72;675;-63
2021/05/10 03:00:18;;;;;;;;;;;23.50;33.60;;;;;;1609892;72;761;-62
2021/05/10 03:02:20;;;;;;;;;;;23.40;33.60;;;;;;1607013;72;1684;-63
2021/05/10 03:04:22;;;;;;;;;;;23.30;33.60;;;;;;1608806;72;830;-63
2021/05/10 03:06:24;;;;;;;;;;;23.40;33.70;;;;;;1610538;73;959;-63
2021/05/10 03:08:26;;;;;;;;;;;23.30;33.60;;;;;;1612468;72;757;-62
2021/05/10 03:10:28;;;;;;;;;;;23.40;33.60;;;;;;1610212;72;798;-64
2021/05/10 03:12:30;;;;;;;;;;;23.40;33.70;;;;;;1612936;73;1207;-62
2021/05/10 03:14:32;;;;;;;;;;;23.40;33.60;;;;;;1607338;72;1938;-63
2021/05/10 03:16:33;;;;;;;;;;;23.40;33.80;;;;;;1610720;72;794;-62
2021/05/10 03:18:35;;;;;;;;;;;23.40;33.70;;;;;;1610514;72;704;-63
2021/05/10 03:20:37;;;;;;;;;;;23.30;33.70;;;;;;1612593;73;720;-62
2021/05/10 03:22:39;;;;;;;;;;;23.40;33.70;;;;;;1612136;72;1116;-62
2021/05/10 03:24:41;;;;;;;;;;;23.40;33.70;;;;;;1611095;72;730;-62
2021/05/10 03:26:43;;;;;;;;;;;23.30;33.80;;;;;;1611013;73;791;-63
2021/05/10 03:28:45;;;;;;;;;;;23.30;33.60;;;;;;1612227;72;732;-63
2021/05/10 03:30:47;;;;;;;;;;;23.30;33.60;;;;;;1607618;72;782;-62
2021/05/10 03:32:49;;;;;;;;;;;23.30;33.90;;;;;;1611672;72;1118;-62
2021/05/10 03:34:50;;;;;;;;;;;23.30;33.80;;;;;;1610361;72;1944;-63
2021/05/10 03:36:52;;;;;;;;;;;23.40;33.90;;;;;;1609096;72;800;-63
2021/05/10 03:38:54;;;;;;;;;;;23.30;33.90;;;;;;1605954;72;712;-62
2021/05/10 03:40:56;;;;;;;;;;;23.30;33.80;;;;;;1611396;72;801;-62
2021/05/10 03:42:59;;;;;;;;;;;23.20;33.70;;;;;;1608597;72;759;-63
2021/05/10 03:45:00;;;;;;;;;;;23.40;33.80;;;;;;1613558;72;788;-63
2021/05/10 03:47:02;;;;;;;;;;;23.30;33.90;;;;;;1606356;72;658;-62
2021/05/10 03:49:04;;;;;;;;;;;23.30;33.70;;;;;;1615102;72;789;-63
2021/05/10 03:51:06;;;;;;;;;;;23.40;33.80;;;;;;1610571;73;1162;-62
2021/05/10 03:53:08;;;;;;;;;;;23.30;33.80;;;;;;1608856;72;771;-62
2021/05/10 03:55:10;;;;;;;;;;;23.30;33.80;;;;;;1613558;72;1934;-62
2021/05/10 03:57:12;;;;;;;;;;;23.20;33.70;;;;;;1608662;72;744;-62
2021/05/10 03:59:14;;;;;;;;;;;23.30;33.80;;;;;;1611687;72;736;-62
2021/05/10 04:01:16;;;;;;;;;;;23.20;33.80;;;;;;1610576;72;1138;-62
2021/05/10 04:03:18;;;;;;;;;;;23.30;33.80;;;;;;1610401;72;790;-62
2021/05/10 04:14:01;;;;;;;;;;;23.20;33.80;;;;;;1610264;72;1904;-62
2021/05/10 04:16:04;;;;;;;;;;;23.20;33.70;;;;;;1607292;72;766;-62
2021/05/10 04:18:06;;;;;;;;;;;23.20;33.70;;;;;;1606212;72;784;-62
2021/05/10 04:20:08;;;;;;;;;;;23.20;33.70;;;;;;1610260;73;825;-62
2021/05/10 04:22:10;;;;;;;;;;;23.20;33.80;;;;;;1611658;72;1146;-63
2021/05/10 04:24:12;;;;;;;;;;;23.40;33.80;;;;;;1612967;72;850;-62
2021/05/10 04:26:14;;;;;;;;;;;23.20;33.70;;;;;;1612128;72;810;-62
2021/05/10 04:28:16;;;;;;;;;;;23.20;33.70;;;;;;1613392;72;784;-61
2021/05/10 04:30:18;;;;;;;;;;;23.20;33.70;;;;;;1609797;72;750;-61
2021/05/10 04:32:20;;;;;;;;;;;23.20;33.80;;;;;;1604833;72;1151;-60
2021/05/10 04:34:21;;;;;;;;;;;23.20;33.80;;;;;;1612546;72;1912;-61
2021/05/10 04:36:23;;;;;;;;;;;23.20;33.70;;;;;;1608979;72;700;-61
2021/05/10 04:38:25;;;;;;;;;;;23.20;33.80;;;;;;1609777;72;721;-61
2021/05/10 04:40:27;;;;;;;;;;;23.20;33.70;;;;;;1608756;72;754;-62
2021/05/10 04:42:29;;;;;;;;;;;23.30;33.80;;;;;;1610029;72;1130;-61
2021/05/10 04:44:31;;;;;;;;;;;23.20;33.60;;;;;;1610081;73;936;-61
2021/05/10 04:46:33;;;;;;;;;;;23.20;33.80;;;;;;1610796;73;789;-62
2021/05/10 04:48:35;;;;;;;;;;;23.30;33.80;;;;;;1613170;73;802;-61
2021/05/10 04:50:36;;;;;;;;;;;23.20;33.70;;;;;;1611068;72;713;-62
2021/05/10 04:52:38;;;;;;;;;;;23.20;33.80;;;;;;1609254;72;1104;-59
2021/05/10 04:54:40;;;;;;;;;;;23.20;33.80;;;;;;1611135;72;1928;-63
2021/05/10 04:56:42;;;;;;;;;;;23.30;33.90;;;;;;1611721;72;783;-61
2021/05/10 04:58:44;;;;;;;;;;;23.20;33.80;;;;;;1612702;72;737;-61
2021/05/10 05:00:46;;;;;;;;;;;23.20;33.90;;;;;;1612561;72;783;-61
2021/05/10 05:02:48;;;;;;;;;;;23.30;34.00;;;;;;1609611;73;1154;-62
2021/05/10 05:04:50;;;;;;;;;;;23.30;34.00;;;;;;1617351;73;773;-62
2021/05/10 05:06:51;;;;;;;;;;;23.20;34.00;;;;;;1620265;72;859;-62
2021/05/10 05:08:53;;;;;;;;;;;23.20;33.80;;;;;;1616060;72;775;-62
2021/05/10 05:10:55;;;;;;;;;;;23.20;33.90;;;;;;1604344;72;738;-62
2021/05/10 05:12:57;;;;;;;;;;;23.20;34.00;;;;;;1614835;72;1152;-63
2021/05/10 05:14:59;;;;;;;;;;;23.30;33.90;;;;;;1612709;72;1934;-63
2021/05/10 05:17:01;;;;;;;;;;;23.20;33.80;;;;;;1612062;72;769;-62
2021/05/10 05:19:03;;;;;;;;;;;23.20;34.00;;;;;;1608961;72;895;-62
2021/05/10 05:21:05;;;;;;;;;;;23.20;34.00;;;;;;1610895;72;1170;-63
2021/05/10 05:23:23;;;;;;;;;;;23.20;34.30;;;;;;1607175;72;698;-62
2021/05/10 05:25:25;;;;;;;;;;;23.30;34.70;;;;;;1610886;72;777;-62
2021/05/10 05:27:28;;;;;;;;;;;23.30;34.90;;;;;;1607104;72;749;-62
2021/05/10 05:29:30;;;;;;;;;;;23.20;35.10;;;;;;1610414;72;704;-62
2021/05/10 05:31:32;;;;;;;;;;;23.20;35.00;;;;;;1608362;72;1148;-62
2021/05/10 05:33:33;;;;;;;;;;;23.20;35.00;;;;;;1610005;72;722;-62
2021/05/10 05:35:35;;;;;;;;;;;23.20;35.10;;;;;;1612474;72;1940;-62
2021/05/10 05:37:37;;;;;;;;;;;23.20;35.10;;;;;;1608728;72;771;-60
2021/05/10 05:39:39;;;;;;;;;;;23.30;35.40;;;;;;1609131;72;786;-63
2021/05/10 05:41:41;;;;;;;;;;;23.30;35.50;;;;;;1612124;72;1138;-63
2021/05/10 05:43:43;;;;;;;;;;;23.40;35.50;;;;;;1611701;73;769;-61
2021/05/10 05:45:45;;;;;;;;;;;23.30;35.70;;;;;;1612899;73;765;-61
2021/05/10 05:47:47;;;;;;;;;;;23.20;36.00;;;;;;1609414;72;771;-60
2021/05/10 05:49:49;;;;;;;;;;;23.30;36.10;;;;;;1610873;73;814;-60
2021/05/10 05:51:51;;;;;;;;;;;23.20;35.70;;;;;;1610133;72;1146;-61
2021/05/10 05:53:53;;;;;;;;;;;23.20;35.80;;;;;;1618433;73;684;-60
2021/05/10 05:55:55;;;;;;;;;;;23.20;35.80;;;;;;1611329;72;1918;-61
2021/05/10 05:58:00;;;;;;;;;;;23.20;35.80;;;;;;1624488;72;769;-60
2021/05/10 06:00:02;;;;;;;;;;;23.20;35.70;;;;;;1619121;72;810;-61
2021/05/10 06:02:04;;;;;;;;;;;23.20;35.90;;;;;;1619884;73;1091;-61
2021/05/10 06:04:06;;;;;;;;;;;23.20;36.30;;;;;;1620703;73;780;-61
2021/05/10 06:06:09;;;;;;;;;;;23.30;35.40;;;;;;1606142;72;709;-61
2021/05/10 06:08:11;;;;;;;;;;;23.20;35.00;;;;;;1618092;72;705;-66
2021/05/10 06:10:13;;;;;;;;;;;23.10;33.70;;;;;;1605991;72;743;-61
2021/05/10 06:12:15;;;;;;;;;;;23.10;34.50;;;;;;1599528;73;1182;-59
2021/05/10 06:14:17;;;;;;;;;;;23.20;34.40;;;;;;1604691;72;1921;-61
2021/05/10 06:16:19;;;;;;;;;;;23.30;34.40;;;;;;1610964;72;837;-61
2021/05/10 06:18:21;;;;;;;;;;;23.30;34.40;;;;;;1622299;72;675;-61
2021/05/10 06:20:24;;;;;;;;;;;23.50;34.30;;;;;;1606601;73;808;-61
2021/05/10 06:22:26;;;;;;;;;;;23.60;34.30;;;;;;1619961;72;1080;-60
2021/05/10 06:24:28;;;;;;;;;;;23.60;33.80;;;;;;1609261;72;675;-62
2021/05/10 06:26:30;;;;;;;;;;;23.60;33.90;;;;;;1622352;72;797;-62
2021/05/10 06:28:32;;;;;;;;;;;23.60;33.90;;;;;;1612341;73;790;-62
2021/05/10 06:30:34;;;;;;;;;;;23.60;34.00;;;;;;1611487;73;783;-61
2021/05/10 06:32:36;;;;;;;;;;;23.70;34.00;;;;;;1606668;73;1142;-62
2021/05/10 06:34:38;;;;;;;;;;;23.80;33.90;;;;;;1610363;72;1906;-61
2021/05/10 06:36:40;;;;;;;;;;;23.80;33.90;;;;;;1612313;72;774;-61
2021/05/10 06:38:42;;;;;;;;;;;23.90;33.90;;;;;;1610543;73;759;-61
2021/05/10 06:40:44;;;;;;;;;;;23.80;33.40;;;;;;1615174;73;736;-61
2021/05/10 06:42:46;;;;;;;;;;;23.80;33.80;;;;;;1611916;72;1135;-61
2021/05/10 06:44:47;;;;;;;;;;;23.90;33.80;;;;;;1612977;72;926;-62
2021/05/10 06:46:49;;;;;;;;;;;23.80;32.60;;;;;;1612315;73;760;-62
2021/05/10 06:48:51;;;;;;;;;;;23.70;33.60;;;;;;1610519;72;768;-63
2021/05/10 06:50:53;;;;;;;;;;;23.70;33.60;;;;;;1608519;72;785;-62
2021/05/10 06:52:55;;;;;;;;;;;23.90;33.50;;;;;;1612673;72;1101;-63
2021/05/10 06:54:57;;;;;;;;;;;23.90;33.40;;;;;;1611600;72;1920;-62
2021/05/10 06:56:59;;;;;;;;;;;24.00;33.50;;;;;;1607839;72;775;-63
2021/05/10 06:59:00;;;;;;;;;;;24.00;33.40;;;;;;1615559;72;770;-62
2021/05/10 07:01:03;;;;;;;;;;;24.00;33.40;;;;;;1615845;72;1129;-62
2021/05/10 07:03:05;;;;;;;;;;;24.10;33.60;;;;;;1602870;72;731;-63
2021/05/10 07:05:07;;;;;;;;;;;24.10;33.60;;;;;;1607501;72;811;-62
2021/05/10 07:07:09;;;;;;;;;;;24.20;33.40;;;;;;1608440;72;720;-62
2021/05/10 07:09:11;;;;;;;;;;;24.10;33.50;;;;;;1609838;73;660;-62
2021/05/10 07:11:13;;;;;;;;;;;24.20;33.60;;;;;;1607775;72;1155;-62
2021/05/10 07:13:15;;;;;;;;;;;24.20;33.70;;;;;;1609999;72;812;-63
2021/05/10 07:15:16;;;;;;;;;;;24.30;33.90;;;;;;1609088;72;1940;-61
2021/05/10 07:17:18;;;;;;;;;;;24.30;33.80;;;;;;1608318;72;764;-64
2021/05/10 07:19:20;;;;;;;;;;;24.40;33.70;;;;;;1614347;72;773;-63
2021/05/10 07:21:22;;;;;;;;;;;24.40;33.70;;;;;;1610272;73;1150;-62
2021/05/10 07:23:24;;;;;;;;;;;24.50;33.70;;;;;;1610335;72;758;-63
2021/05/10 07:25:26;;;;;;;;;;;24.40;33.50;;;;;;1614065;72;905;-62
2021/05/10 07:27:28;;;;;;;;;;;24.50;33.60;;;;;;1606330;73;828;-62
2021/05/10 07:29:30;;;;;;;;;;;24.50;33.30;;;;;;1607814;72;913;-63
2021/05/10 07:31:32;;;;;;;;;;;24.50;33.30;;;;;;1609636;72;1154;-62
2021/05/10 07:33:34;;;;;;;;;;;24.50;33.00;;;;;;1611189;72;795;-63
2021/05/10 07:35:36;;;;;;;;;;;24.60;33.10;;;;;;1609699;72;1936;-62
2021/05/10 07:37:38;;;;;;;;;;;24.50;32.90;;;;;;1612177;72;792;-63
2021/05/10 07:39:40;;;;;;;;;;;24.60;32.80;;;;;;1608149;72;813;-62
2021/05/10 07:41:41;;;;;;;;;;;24.70;32.80;;;;;;1611365;72;1144;-62
2021/05/10 07:43:43;;;;;;;;;;;24.60;32.70;;;;;;1615660;72;703;-62
2021/05/10 07:45:45;;;;;;;;;;;24.60;32.70;;;;;;1617435;73;778;-63
2021/05/10 07:47:53;;;;;;;;;;;24.50;32.70;;;;;;1608353;72;742;-63
2021/05/10 07:49:53;;;;;;;;;;;24.50;32.70;;;;;;1606231;72;1649;-63
2021/05/10 07:51:55;;;;;;;;;;;24.60;32.90;;;;;;1613787;73;1158;-62
2021/05/10 07:53:57;;;;;;;;;;;24.50;32.90;;;;;;1613282;73;735;-62
2021/05/10 07:56:00;;;;;;;;;;;24.60;33.00;;;;;;1609925;73;1918;-63
2021/05/10 07:58:01;;;;;;;;;;;24.70;33.10;;;;;;1613418;73;780;-63
2021/05/10 08:00:06;;;;;;;;;;;24.60;32.90;;;;;;1611034;72;812;-62
2021/05/10 08:02:08;;;;;;;;;;;24.70;32.90;;;;;;1605083;70;217356;-72
2021/05/10 08:04:09;;;;;;;;;;;24.80;32.90;;;;;;1609633;72;709;-71
2021/05/10 08:06:12;;;;;;;;;;;24.70;33.00;;;;;;1618553;72;741;-71
2021/05/10 08:08:16;;;;;;;;;;;24.70;32.80;;;;;;1618530;72;750;-71
2021/05/10 08:10:17;;;;;;;;;;;24.80;32.50;;;;;;1620298;72;1635;-69
2021/05/10 08:12:19;;;;;;;;;;;24.70;32.70;;;;;;1623628;72;1195;-71
2021/05/10 08:14:21;;;;;;;;;;;24.70;32.70;;;;;;1618941;72;722;-70
2021/05/10 08:16:25;;;;;;;;;;;24.80;32.60;;;;;;1620587;72;1939;-69
2021/05/10 08:18:27;;;;;;;;;;;24.80;32.40;;;;;;1614791;73;694;-71
2021/05/10 08:20:28;;;;;;;;;;;24.90;32.20;;;;;;1622753;72;796;-70
2021/05/10 08:22:30;;;;;;;;;;;24.80;32.30;;;;;;1618628;73;1145;-69
2021/05/10 08:24:32;;;;;;;;;;;24.80;32.10;;;;;;1623574;72;816;-71
2021/05/10 08:26:34;;;;;;;;;;;24.80;32.10;;;;;;1621942;72;762;-70
2021/05/10 08:28:36;;;;;;;;;;;24.80;32.10;;;;;;1626867;72;756;-71
2021/05/10 08:30:38;;;;;;;;;;;24.80;32.10;;;;;;1628832;72;751;-71
2021/05/10 08:32:40;;;;;;;;;;;24.80;32.10;;;;;;1628952;72;1125;-71
2021/05/10 08:34:42;;;;;;;;;;;24.90;32.10;;;;;;1610618;72;683;-70
2021/05/10 08:36:44;;;;;;;;;;;24.80;32.00;;;;;;1609334;72;1947;-69
2021/05/10 08:38:48;;;;;;;;;;;24.80;31.90;;;;;;1621048;72;757;-71
2021/05/10 08:40:54;;;;;;;;;;;24.90;32.00;;;;;;1625326;73;1689;-70
2021/05/10 08:42:53;;;;;;;;;;;24.80;31.80;;;;;;1621944;72;1311;-69
2021/05/10 08:44:54;;;;;;;;;;;24.80;31.80;;;;;;1619958;72;786;-69
2021/05/10 08:46:58;;;;;;;;;;;24.80;31.80;;;;;;1621538;72;829;-70
2021/05/10 08:49:00;;;;;;;;;;;24.80;31.60;;;;;;1616509;73;725;-69
2021/05/10 08:51:03;;;;;;;;;;;24.80;31.60;;;;;;1608952;73;803;-69
2021/05/10 08:53:04;;;;;;;;;;;24.70;31.70;;;;;;1616447;72;1121;-69
2021/05/10 08:55:07;;;;;;;;;;;24.70;31.80;;;;;;1622076;72;1931;-69
2021/05/10 08:57:09;;;;;;;;;;;24.70;31.50;;;;;;1614840;72;663;-66
2021/05/10 08:59:10;;;;;;;;;;;24.60;31.80;;;;;;1616843;73;780;-69
2021/05/10 09:01:13;;;;;;;;;;;24.80;31.80;;;;;;1612627;72;910;-69
2021/05/10 09:03:14;;;;;;;;;;;24.70;31.70;;;;;;1615058;72;1127;-70
2021/05/10 09:05:17;;;;;;;;;;;24.80;31.80;;;;;;1614759;72;728;-69
2021/05/10 09:07:20;;;;;;;;;;;24.80;31.60;;;;;;1619820;72;773;-70
2021/05/10 09:09:22;;;;;;;;;;;24.80;31.60;;;;;;1609951;72;1398;-69
2021/05/10 09:11:24;;;;;;;;;;;24.70;31.60;;;;;;1622207;72;776;-70
2021/05/10 09:13:34;;;;;;;;;;;24.70;31.40;;;;;;1616329;72;1119;-71
2021/05/10 09:15:36;;;;;;;;;;;24.70;31.60;;;;;;1630138;72;1914;-69
2021/05/10 09:17:49;;;;;;;;;;;24.70;31.50;;;;;;1619713;73;738;-70
2021/05/10 09:19:56;;;;;;;;;;;24.80;31.40;;;;;;1619964;72;1020;-70
2021/05/10 09:21:57;;;;;;;;;;;24.80;31.30;;;;;;1618893;72;1875;-71
2021/05/10 09:23:58;;;;;;;;;;;24.80;31.30;;;;;;1617841;72;801;-69
2021/05/10 09:26:00;;;;;;;;;;;24.80;31.30;;;;;;1617784;72;859;-69
2021/05/10 09:28:13;;;;;;;;;;;24.80;31.20;;;;;;1614367;72;793;-69
2021/05/10 09:30:25;;;;;;;;;;;24.80;31.00;;;;;;1581410;73;1153;-70
2021/05/10 09:32:28;;;;;;;;;;;24.80;30.90;;;;;;1612426;72;1162;-71
2021/05/10 09:34:30;;;;;;;;;;;24.80;30.80;;;;;;1615518;72;755;-69
2021/05/10 09:36:32;;;;;;;;;;;25.00;30.70;;;;;;1619728;72;1941;-70
2021/05/10 09:38:36;;;;;;;;;;;24.90;30.80;;;;;;1610928;72;785;-69
2021/05/10 09:40:45;;;;;;;;;;;24.90;30.80;;;;;;1620988;72;763;-69
2021/05/10 09:42:48;;;;;;;;;;;24.90;30.70;;;;;;1621885;72;1129;-70
2021/05/10 09:44:50;;;;;;;;;;;24.80;30.70;;;;;;1619458;72;1801;-69
2021/05/10 09:46:54;;;;;;;;;;;24.80;30.70;;;;;;1618481;72;790;-70
2021/05/10 09:48:55;;;;;;;;;;;24.80;30.60;;;;;;1620719;72;1800;-70
2021/05/10 09:51:00;;;;;;;;;;;24.80;30.50;;;;;;1584412;73;1204;-69
2021/05/10 09:53:02;;;;;;;;;;;24.80;30.50;;;;;;1589443;73;1666;-68
2021/05/10 09:55:04;;;;;;;;;;;24.80;30.40;;;;;;1581942;73;913;-70
2021/05/10 09:57:07;;;;;;;;;;;24.80;30.60;;;;;;1586857;74;1938;-69
2021/05/10 09:59:13;;;;;;;;;;;24.80;30.60;;;;;;1580686;74;771;-70
2021/05/10 10:01:15;;;;;;;;;;;24.80;30.60;;;;;;1593736;73;747;-68
2021/05/10 10:03:27;;;;;;;;;;;24.80;30.70;;;;;;1590171;73;1163;-73
2021/05/10 10:05:29;;;;;;;;;;;24.80;30.70;;;;;;1588581;73;1821;-70
2021/05/10 10:07:31;;;;;;;;;;;24.70;30.90;;;;;;1596250;73;789;-69
2021/05/10 10:09:33;;;;;;;;;;;24.70;30.90;;;;;;1587422;73;738;-69
2021/05/10 10:11:35;;;;;;;;;;;24.70;31.00;;;;;;1601461;73;1137;-70
2021/05/10 10:13:37;;;;;;;;;;;24.70;31.10;;;;;;1591840;73;759;-69
2021/05/10 10:15:39;;;;;;;;;;;24.70;31.10;;;;;;1592675;73;1936;-70
2021/05/10 10:17:41;;;;;;;;;;;24.70;31.40;;;;;;1618693;72;930;-68
2021/05/10 10:19:43;;;;;;;;;;;24.60;31.30;;;;;;1606614;72;662;-71
2021/05/10 10:21:45;;;;;;;;;;;24.60;31.30;;;;;;1615426;72;1121;-71
2021/05/10 10:23:54;;;;;;;;;;;24.70;31.30;;;;;;1608366;72;705;-71
2021/05/10 10:25:57;;;;;;;;;;;24.70;31.00;;;;;;1603731;72;1820;-69
2021/05/10 10:27:59;;;;;;;;;;;24.60;31.10;;;;;;1603001;72;800;-69
2021/05/10 10:30:01;;;;;;;;;;;24.50;31.20;;;;;;1615472;72;745;-66
2021/05/10 10:32:03;;;;;;;;;;;24.50;31.10;;;;;;1604229;72;1126;-70
2021/05/10 10:34:09;;;;;;;;;;;24.50;31.10;;;;;;1610403;72;755;-69
2021/05/10 10:36:19;;;;;;;;;;;24.50;31.10;;;;;;1602774;72;1936;-69
2021/05/10 10:38:25;;;;;;;;;;;24.50;31.10;;;;;;1609760;72;1788;-69
2021/05/10 10:40:27;;;;;;;;;;;24.60;31.00;;;;;;1614829;72;1642;-70
2021/05/10 10:42:34;;;;;;;;;;;24.60;31.00;;;;;;1614617;73;1126;-69
2021/05/10 10:44:38;;;;;;;;;;;24.60;30.90;;;;;;1607676;72;1708;-69
2021/05/10 10:46:41;;;;;;;;;;;24.60;30.80;;;;;;1600692;72;1561;-69
2021/05/10 10:48:43;;;;;;;;;;;24.60;30.70;;;;;;1598012;72;1578;-66
2021/05/10 10:50:59;;;;;;;;;;;24.60;30.70;;;;;;1602317;72;790;-69
2021/05/10 10:53:02;;;;;;;;;;;24.60;30.70;;;;;;1616239;72;1345;-70
2021/05/10 10:55:27;;;;;;;;;;;24.60;30.40;;;;;;1597493;73;756;-66
2021/05/10 10:57:34;;;;;;;;;;;24.50;30.70;;;;;;1612698;72;1909;-71
2021/05/10 10:59:37;;;;;;;;;;;24.50;30.70;;;;;;1606858;73;867;-69
2021/05/10 11:01:42;;;;;;;;;;;24.50;30.90;;;;;;1607409;73;1079;-68
2021/05/10 11:03:44;;;;;;;;;;;24.50;30.80;;;;;;1613901;72;1091;-67
2021/05/10 11:05:46;;;;;;;;;;;24.50;30.80;;;;;;1597836;72;689;-69
2021/05/10 11:08:04;;;;;;;;;;;24.60;30.90;;;;;;1597408;72;692;-69
2021/05/10 11:10:06;;;;;;;;;;;24.50;31.00;;;;;;1605291;72;753;-69
2021/05/10 11:12:08;;;;;;;;;;;24.40;30.90;;;;;;1606163;72;1175;-68
2021/05/10 11:14:14;;;;;;;;;;;24.40;31.00;;;;;;1601336;72;799;-70
2021/05/10 11:16:18;;;;;;;;;;;24.30;31.00;;;;;;1603991;72;1907;-69
2021/05/10 11:18:33;;;;;;;;;;;24.30;31.10;;;;;;1609670;72;1672;-69
2021/05/10 11:20:45;;;;;;;;;;;24.40;31.30;;;;;;1599533;72;1676;-69
2021/05/10 11:22:48;;;;;;;;;;;24.40;31.20;;;;;;1601470;72;1222;-71
2021/05/10 11:24:50;;;;;;;;;;;24.30;31.60;;;;;;1606154;72;910;-71
2021/05/10 11:26:52;;;;;;;;;;;24.40;31.50;;;;;;1606674;72;719;-70
2021/05/10 11:28:54;;;;;;;;;;;24.40;31.40;;;;;;1600031;72;723;-71
2021/05/10 11:30:57;;;;;;;;;;;24.40;31.30;;;;;;1599633;72;753;-70
2021/05/10 11:32:59;;;;;;;;;;;24.50;31.30;;;;;;1595531;73;1153;-70
2021/05/10 11:35:19;;;;;;;;;;;24.50;31.20;;;;;;1597515;72;725;-70
2021/05/10 11:37:25;;;;;;;;;;;24.50;31.30;;;;;;1597824;72;1913;-72
2021/05/10 11:39:28;;;;;;;;;;;24.50;31.20;;;;;;1593935;72;762;-70
2021/05/10 11:41:31;;;;;;;;;;;24.50;31.20;;;;;;1597158;72;1161;-71
2021/05/10 11:43:35;;;;;;;;;;;24.40;31.50;;;;;;1594195;73;764;-70
2021/05/10 11:45:44;;;;;;;;;;;24.40;31.70;;;;;;1600347;72;2470;-70
2021/05/10 11:47:47;;;;;;;;;;;24.40;31.50;;;;;;1609311;72;806;-70
2021/05/10 11:49:52;;;;;;;;;;;24.40;31.50;;;;;;1606185;72;734;-70
2021/05/10 11:51:56;;;;;;;;;;;24.30;31.50;;;;;;1596655;73;1246;-70
2021/05/10 11:53:58;;;;;;;;;;;24.40;31.30;;;;;;1600958;72;715;-70
2021/05/10 11:56:02;;;;;;;;;;;24.30;31.40;;;;;;1604361;73;791;-70
2021/05/10 11:58:04;;;;;;;;;;;24.30;31.30;;;;;;1606616;72;1915;-70
2021/05/10 12:00:15;;;;;;;;;;;24.40;31.00;;;;;;1603634;72;838;-67
2021/05/10 12:02:18;;;;;;;;;;;24.50;31.00;;;;;;1606470;72;1193;-70
2021/05/10 12:04:21;;;;;;;;;;;24.50;31.00;;;;;;1597879;72;782;-70
2021/05/10 12:06:30;;;;;;;;;;;24.50;31.00;;;;;;1611938;72;750;-69
2021/05/10 12:08:38;;;;;;;;;;;24.50;31.00;;;;;;1602218;73;1128;-71
2021/05/10 12:10:40;;;;;;;;;;;24.40;31.00;;;;;;1600281;72;771;-71
2021/05/10 12:12:47;;;;;;;;;;;24.50;31.10;;;;;;1603608;72;1164;-69
2021/05/10 12:14:53;;;;;;;;;;;24.40;31.00;;;;;;1599862;72;889;-70
2021/05/10 12:17:02;;;;;;;;;;;24.40;31.10;;;;;;1596209;72;1919;-70
2021/05/10 12:19:04;;;;;;;;;;;24.40;31.10;;;;;;1603202;72;1814;-70
2021/05/10 12:21:15;;;;;;;;;;;24.40;31.10;;;;;;1592783;73;744;-70